sensor_id;sensor_type;location;lat;lon;timestamp;P1;durP1;ratioP1;P2;durP2;ratioP2
3875;SDS011;1953;51.222;6.624;2023-07-09T00:02:25;9.27;;;7.80;;
3875;SDS011;1953;51.222;6.624;2023-07-09T00:07:11;10.10;;;7.60;;
3875;SDS011;1953;51.222;6.624;2023-07-09T00:14:39;11.20;;;7.97;;
3875;SDS011;1953;51.222;6.624;2023-07-09T00:19:22;9.73;;;7.47;;
3875;SDS011;1953;51.222;6.624;2023-07-09T00:24:05;11.47;;;7.80;;
3875;SDS011;1953;51.222;6.624;2023-07-09T00:28:48;9.10;;;7.60;;
3875;SDS011;1953;51.222;6.624;2023-07-09T00:33:32;10.80;;;7.87;;
3875;SDS011;1953;51.222;6.624;2023-07-09T00:38:14;9.83;;;7.37;;
3875;SDS011;1953;51.222;6.624;2023-07-09T00:43:00;13.57;;;7.60;;
3875;SDS011;1953;51.222;6.624;2023-07-09T00:47:43;11.17;;;8.07;;
3875;SDS011;1953;51.222;6.624;2023-07-09T00:52:33;9.70;;;8.00;;
3875;SDS011;1953;51.222;6.624;2023-07-09T00:57:21;14.83;;;8.00;;
3875;SDS011;1953;51.222;6.624;2023-07-09T01:02:07;9.60;;;7.83;;
3875;SDS011;1953;51.222;6.624;2023-07-09T01:06:51;11.40;;;7.90;;
3875;SDS011;1953;51.222;6.624;2023-07-09T01:11:37;12.17;;;8.37;;
3875;SDS011;1953;51.222;6.624;2023-07-09T01:16:20;10.13;;;8.00;;
3875;SDS011;1953;51.222;6.624;2023-07-09T01:21:08;8.90;;;8.00;;
3875;SDS011;1953;51.222;6.624;2023-07-09T01:25:56;8.87;;;8.07;;
3875;SDS011;1953;51.222;6.624;2023-07-09T01:30:39;15.20;;;8.43;;
3875;SDS011;1953;51.222;6.624;2023-07-09T01:35:22;9.93;;;8.60;;
3875;SDS011;1953;51.222;6.624;2023-07-09T01:40:09;13.63;;;8.57;;
3875;SDS011;1953;51.222;6.624;2023-07-09T01:44:53;12.17;;;8.27;;
3875;SDS011;1953;51.222;6.624;2023-07-09T01:49:37;13.53;;;9.47;;
3875;SDS011;1953;51.222;6.624;2023-07-09T01:54:20;13.43;;;8.33;;
3875;SDS011;1953;51.222;6.624;2023-07-09T01:59:04;12.33;;;8.83;;
3875;SDS011;1953;51.222;6.624;2023-07-09T02:03:47;11.67;;;8.90;;
3875;SDS011;1953;51.222;6.624;2023-07-09T02:08:30;10.33;;;8.63;;
3875;SDS011;1953;51.222;6.624;2023-07-09T02:13:12;14.60;;;8.87;;
3875;SDS011;1953;51.222;6.624;2023-07-09T02:17:56;12.33;;;9.03;;
3875;SDS011;1953;51.222;6.624;2023-07-09T02:22:42;10.80;;;8.37;;
3875;SDS011;1953;51.222;6.624;2023-07-09T02:27:27;10.57;;;8.90;;
3875;SDS011;1953;51.222;6.624;2023-07-09T02:32:09;14.60;;;8.80;;
3875;SDS011;1953;51.222;6.624;2023-07-09T02:37:00;9.30;;;8.23;;
3875;SDS011;1953;51.222;6.624;2023-07-09T02:41:42;15.30;;;9.67;;
3875;SDS011;1953;51.222;6.624;2023-07-09T02:46:25;15.70;;;9.90;;
3875;SDS011;1953;51.222;6.624;2023-07-09T02:51:08;14.00;;;9.10;;
3875;SDS011;1953;51.222;6.624;2023-07-09T02:55:52;10.70;;;8.60;;
3875;SDS011;1953;51.222;6.624;2023-07-09T03:00:34;11.47;;;9.03;;
3875;SDS011;1953;51.222;6.624;2023-07-09T03:05:17;12.83;;;8.90;;
3875;SDS011;1953;51.222;6.624;2023-07-09T03:09:59;11.63;;;9.47;;
3875;SDS011;1953;51.222;6.624;2023-07-09T03:14:43;10.83;;;8.83;;
3875;SDS011;1953;51.222;6.624;2023-07-09T03:19:28;14.90;;;9.10;;
3875;SDS011;1953;51.222;6.624;2023-07-09T03:24:11;10.50;;;8.77;;
3875;SDS011;1953;51.222;6.624;2023-07-09T03:28:55;11.87;;;9.70;;
3875;SDS011;1953;51.222;6.624;2023-07-09T03:33:39;13.57;;;10.07;;
3875;SDS011;1953;51.222;6.624;2023-07-09T03:38:22;11.77;;;10.23;;
3875;SDS011;1953;51.222;6.624;2023-07-09T03:43:05;14.60;;;9.97;;
3875;SDS011;1953;51.222;6.624;2023-07-09T03:47:48;13.80;;;9.10;;
3875;SDS011;1953;51.222;6.624;2023-07-09T03:52:32;14.07;;;10.30;;
3875;SDS011;1953;51.222;6.624;2023-07-09T03:57:15;13.50;;;9.57;;
3875;SDS011;1953;51.222;6.624;2023-07-09T04:01:57;12.53;;;10.07;;
3875;SDS011;1953;51.222;6.624;2023-07-09T04:06:42;11.87;;;9.47;;
3875;SDS011;1953;51.222;6.624;2023-07-09T04:11:26;12.90;;;10.13;;
3875;SDS011;1953;51.222;6.624;2023-07-09T04:16:09;17.70;;;9.73;;
3875;SDS011;1953;51.222;6.624;2023-07-09T04:20:52;12.30;;;10.03;;
3875;SDS011;1953;51.222;6.624;2023-07-09T04:25:35;11.87;;;9.47;;
3875;SDS011;1953;51.222;6.624;2023-07-09T04:30:19;13.43;;;10.13;;
3875;SDS011;1953;51.222;6.624;2023-07-09T04:35:01;14.03;;;10.03;;
3875;SDS011;1953;51.222;6.624;2023-07-09T04:39:46;12.73;;;9.57;;
3875;SDS011;1953;51.222;6.624;2023-07-09T04:44:29;12.80;;;10.40;;
3875;SDS011;1953;51.222;6.624;2023-07-09T04:49:13;11.13;;;8.53;;
3875;SDS011;1953;51.222;6.624;2023-07-09T04:53:55;11.07;;;8.80;;
3875;SDS011;1953;51.222;6.624;2023-07-09T04:58:38;13.20;;;9.13;;
3875;SDS011;1953;51.222;6.624;2023-07-09T05:03:20;13.43;;;10.33;;
3875;SDS011;1953;51.222;6.624;2023-07-09T05:08:04;15.63;;;9.33;;
3875;SDS011;1953;51.222;6.624;2023-07-09T05:12:48;11.50;;;9.07;;
3875;SDS011;1953;51.222;6.624;2023-07-09T05:17:31;11.30;;;8.90;;
3875;SDS011;1953;51.222;6.624;2023-07-09T05:22:13;11.93;;;8.80;;
3875;SDS011;1953;51.222;6.624;2023-07-09T05:26:57;11.40;;;8.50;;
3875;SDS011;1953;51.222;6.624;2023-07-09T05:31:40;13.53;;;9.07;;
3875;SDS011;1953;51.222;6.624;2023-07-09T05:36:23;14.50;;;8.53;;
3875;SDS011;1953;51.222;6.624;2023-07-09T05:41:05;13.20;;;8.93;;
3875;SDS011;1953;51.222;6.624;2023-07-09T05:45:50;14.67;;;8.80;;
3875;SDS011;1953;51.222;6.624;2023-07-09T05:50:33;11.90;;;8.37;;
3875;SDS011;1953;51.222;6.624;2023-07-09T05:55:16;19.13;;;9.63;;
3875;SDS011;1953;51.222;6.624;2023-07-09T05:59:59;14.27;;;8.70;;
3875;SDS011;1953;51.222;6.624;2023-07-09T06:04:43;10.97;;;8.90;;
3875;SDS011;1953;51.222;6.624;2023-07-09T06:09:26;10.23;;;8.40;;
3875;SDS011;1953;51.222;6.624;2023-07-09T06:14:08;13.17;;;8.90;;
3875;SDS011;1953;51.222;6.624;2023-07-09T06:18:51;11.67;;;8.43;;
3875;SDS011;1953;51.222;6.624;2023-07-09T06:23:35;10.40;;;8.20;;
3875;SDS011;1953;51.222;6.624;2023-07-09T06:28:19;11.17;;;8.13;;
3875;SDS011;1953;51.222;6.624;2023-07-09T06:33:02;10.93;;;8.40;;
3875;SDS011;1953;51.222;6.624;2023-07-09T06:37:45;12.20;;;8.30;;
3875;SDS011;1953;51.222;6.624;2023-07-09T06:42:29;10.47;;;7.73;;
3875;SDS011;1953;51.222;6.624;2023-07-09T06:47:12;11.80;;;8.37;;
3875;SDS011;1953;51.222;6.624;2023-07-09T06:51:55;9.20;;;7.60;;
3875;SDS011;1953;51.222;6.624;2023-07-09T06:56:37;10.33;;;8.10;;
3875;SDS011;1953;51.222;6.624;2023-07-09T07:01:21;9.13;;;8.00;;
3875;SDS011;1953;51.222;6.624;2023-07-09T07:06:04;8.63;;;7.20;;
3875;SDS011;1953;51.222;6.624;2023-07-09T07:10:47;8.60;;;6.73;;
3875;SDS011;1953;51.222;6.624;2023-07-09T07:15:30;11.20;;;7.77;;
3875;SDS011;1953;51.222;6.624;2023-07-09T07:20:14;11.50;;;7.90;;
3875;SDS011;1953;51.222;6.624;2023-07-09T07:24:57;10.33;;;7.20;;
3875;SDS011;1953;51.222;6.624;2023-07-09T07:29:40;13.50;;;7.00;;
3875;SDS011;1953;51.222;6.624;2023-07-09T07:34:23;10.03;;;7.30;;
3875;SDS011;1953;51.222;6.624;2023-07-09T07:39:07;8.30;;;7.50;;
3875;SDS011;1953;51.222;6.624;2023-07-09T07:43:49;10.20;;;7.03;;
3875;SDS011;1953;51.222;6.624;2023-07-09T07:48:32;9.00;;;7.57;;
3875;SDS011;1953;51.222;6.624;2023-07-09T07:53:14;10.30;;;7.37;;
3875;SDS011;1953;51.222;6.624;2023-07-09T07:57:59;9.30;;;6.30;;
3875;SDS011;1953;51.222;6.624;2023-07-09T08:02:43;7.68;;;6.80;;
3875;SDS011;1953;51.222;6.624;2023-07-09T08:07:26;8.63;;;7.70;;
3875;SDS011;1953;51.222;6.624;2023-07-09T08:12:09;11.18;;;7.13;;
3875;SDS011;1953;51.222;6.624;2023-07-09T08:16:54;9.77;;;7.30;;
3875;SDS011;1953;51.222;6.624;2023-07-09T08:21:37;8.48;;;7.18;;
3875;SDS011;1953;51.222;6.624;2023-07-09T08:26:19;12.35;;;7.18;;
3875;SDS011;1953;51.222;6.624;2023-07-09T08:31:02;8.30;;;6.70;;
3875;SDS011;1953;51.222;6.624;2023-07-09T08:35:48;10.48;;;6.70;;
3875;SDS011;1953;51.222;6.624;2023-07-09T08:40:31;7.40;;;6.63;;
3875;SDS011;1953;51.222;6.624;2023-07-09T08:45:20;13.77;;;7.03;;
3875;SDS011;1953;51.222;6.624;2023-07-09T08:50:11;6.82;;;6.10;;
3875;SDS011;1953;51.222;6.624;2023-07-09T08:54:57;8.40;;;6.60;;
3875;SDS011;1953;51.222;6.624;2023-07-09T08:59:44;9.15;;;7.22;;
3875;SDS011;1953;51.222;6.624;2023-07-09T09:04:28;9.75;;;6.40;;
3875;SDS011;1953;51.222;6.624;2023-07-09T09:09:15;11.02;;;6.32;;
3875;SDS011;1953;51.222;6.624;2023-07-09T09:14:12;6.72;;;6.03;;
3875;SDS011;1953;51.222;6.624;2023-07-09T09:19:11;8.27;;;6.13;;
3875;SDS011;1953;51.222;6.624;2023-07-09T09:24:09;6.40;;;5.53;;
3875;SDS011;1953;51.222;6.624;2023-07-09T09:28:56;7.35;;;5.30;;
3875;SDS011;1953;51.222;6.624;2023-07-09T09:33:42;9.38;;;5.50;;
3875;SDS011;1953;51.222;6.624;2023-07-09T09:38:25;6.68;;;5.50;;
3875;SDS011;1953;51.222;6.624;2023-07-09T09:43:11;10.68;;;5.97;;
3875;SDS011;1953;51.222;6.624;2023-07-09T09:47:58;8.90;;;4.88;;
3875;SDS011;1953;51.222;6.624;2023-07-09T09:52:43;8.23;;;5.30;;
3875;SDS011;1953;51.222;6.624;2023-07-09T09:57:27;6.95;;;5.38;;
3875;SDS011;1953;51.222;6.624;2023-07-09T10:02:14;6.00;;;5.20;;
3875;SDS011;1953;51.222;6.624;2023-07-09T10:06:59;5.90;;;5.30;;
3875;SDS011;1953;51.222;6.624;2023-07-09T10:11:49;5.60;;;5.10;;
3875;SDS011;1953;51.222;6.624;2023-07-09T10:16:41;5.60;;;4.70;;
3875;SDS011;1953;51.222;6.624;2023-07-09T10:21:27;6.40;;;4.90;;
3875;SDS011;1953;51.222;6.624;2023-07-09T10:26:15;9.82;;;5.03;;
3875;SDS011;1953;51.222;6.624;2023-07-09T10:31:08;8.80;;;4.93;;
3875;SDS011;1953;51.222;6.624;2023-07-09T10:35:59;9.68;;;4.95;;
3875;SDS011;1953;51.222;6.624;2023-07-09T10:40:49;5.93;;;4.65;;
3875;SDS011;1953;51.222;6.624;2023-07-09T10:45:38;5.55;;;5.00;;
3875;SDS011;1953;51.222;6.624;2023-07-09T10:50:32;6.60;;;4.50;;
3875;SDS011;1953;51.222;6.624;2023-07-09T10:55:17;5.45;;;4.95;;
3875;SDS011;1953;51.222;6.624;2023-07-09T11:00:10;6.93;;;4.75;;
3875;SDS011;1953;51.222;6.624;2023-07-09T11:04:57;5.60;;;4.90;;
3875;SDS011;1953;51.222;6.624;2023-07-09T11:09:43;4.13;;;3.70;;
3875;SDS011;1953;51.222;6.624;2023-07-09T11:14:29;5.05;;;4.25;;
3875;SDS011;1953;51.222;6.624;2023-07-09T11:19:17;4.03;;;3.83;;
3875;SDS011;1953;51.222;6.624;2023-07-09T11:24:01;9.43;;;4.35;;
3875;SDS011;1953;51.222;6.624;2023-07-09T11:28:50;5.47;;;5.00;;
3875;SDS011;1953;51.222;6.624;2023-07-09T11:33:43;5.45;;;4.93;;
3875;SDS011;1953;51.222;6.624;2023-07-09T11:38:36;5.82;;;4.78;;
3875;SDS011;1953;51.222;6.624;2023-07-09T11:43:25;5.28;;;4.43;;
3875;SDS011;1953;51.222;6.624;2023-07-09T11:48:15;8.98;;;4.97;;
3875;SDS011;1953;51.222;6.624;2023-07-09T11:53:12;5.07;;;4.78;;
3875;SDS011;1953;51.222;6.624;2023-07-09T11:58:04;6.38;;;4.80;;
3875;SDS011;1953;51.222;6.624;2023-07-09T12:02:47;9.75;;;4.82;;
3875;SDS011;1953;51.222;6.624;2023-07-09T12:07:31;8.02;;;5.13;;
3875;SDS011;1953;51.222;6.624;2023-07-09T12:15:41;4.63;;;4.32;;
3875;SDS011;1953;51.222;6.624;2023-07-09T12:20:24;6.07;;;4.25;;
3875;SDS011;1953;51.222;6.624;2023-07-09T12:25:07;4.45;;;4.18;;
3875;SDS011;1953;51.222;6.624;2023-07-09T12:30:03;4.82;;;4.25;;
3875;SDS011;1953;51.222;6.624;2023-07-09T12:34:54;5.88;;;4.22;;
3875;SDS011;1953;51.222;6.624;2023-07-09T12:39:37;4.65;;;4.22;;
3875;SDS011;1953;51.222;6.624;2023-07-09T12:44:20;7.00;;;4.03;;
3875;SDS011;1953;51.222;6.624;2023-07-09T12:49:04;4.53;;;3.90;;
3875;SDS011;1953;51.222;6.624;2023-07-09T12:53:49;4.25;;;3.50;;
3875;SDS011;1953;51.222;6.624;2023-07-09T12:58:41;6.10;;;3.55;;
3875;SDS011;1953;51.222;6.624;2023-07-09T13:03:26;7.75;;;3.45;;
3875;SDS011;1953;51.222;6.624;2023-07-09T13:08:11;5.13;;;4.00;;
3875;SDS011;1953;51.222;6.624;2023-07-09T13:13:00;6.30;;;3.40;;
3875;SDS011;1953;51.222;6.624;2023-07-09T13:17:44;7.05;;;4.28;;
3875;SDS011;1953;51.222;6.624;2023-07-09T13:22:27;7.43;;;4.50;;
3875;SDS011;1953;51.222;6.624;2023-07-09T13:27:11;4.50;;;4.20;;
3875;SDS011;1953;51.222;6.624;2023-07-09T13:31:56;4.93;;;4.53;;
3875;SDS011;1953;51.222;6.624;2023-07-09T13:36:39;7.40;;;4.60;;
3875;SDS011;1953;51.222;6.624;2023-07-09T13:41:21;6.68;;;4.78;;
3875;SDS011;1953;51.222;6.624;2023-07-09T13:46:05;11.20;;;5.32;;
3875;SDS011;1953;51.222;6.624;2023-07-09T13:50:51;17.15;;;6.00;;
3875;SDS011;1953;51.222;6.624;2023-07-09T13:55:34;7.65;;;5.20;;
3875;SDS011;1953;51.222;6.624;2023-07-09T14:00:17;11.00;;;6.13;;
3875;SDS011;1953;51.222;6.624;2023-07-09T14:05:01;9.02;;;5.75;;
3875;SDS011;1953;51.222;6.624;2023-07-09T14:09:46;21.05;;;5.90;;
3875;SDS011;1953;51.222;6.624;2023-07-09T14:14:30;14.00;;;5.55;;
3875;SDS011;1953;51.222;6.624;2023-07-09T14:19:15;9.82;;;5.80;;
3875;SDS011;1953;51.222;6.624;2023-07-09T14:23:58;6.75;;;5.13;;
3875;SDS011;1953;51.222;6.624;2023-07-09T14:28:42;11.25;;;5.90;;
3875;SDS011;1953;51.222;6.624;2023-07-09T14:33:25;7.67;;;6.00;;
3875;SDS011;1953;51.222;6.624;2023-07-09T14:38:11;10.80;;;6.13;;
3875;SDS011;1953;51.222;6.624;2023-07-09T14:42:58;10.23;;;7.40;;
3875;SDS011;1953;51.222;6.624;2023-07-09T14:47:44;12.23;;;8.30;;
3875;SDS011;1953;51.222;6.624;2023-07-09T14:52:28;11.87;;;9.03;;
3875;SDS011;1953;51.222;6.624;2023-07-09T14:57:16;19.67;;;11.27;;
3875;SDS011;1953;51.222;6.624;2023-07-09T15:02:00;14.32;;;8.35;;
3875;SDS011;1953;51.222;6.624;2023-07-09T15:06:44;16.07;;;9.40;;
3875;SDS011;1953;51.222;6.624;2023-07-09T15:11:27;13.57;;;12.07;;
3875;SDS011;1953;51.222;6.624;2023-07-09T15:16:09;16.77;;;11.80;;
3875;SDS011;1953;51.222;6.624;2023-07-09T15:20:52;16.53;;;12.97;;
3875;SDS011;1953;51.222;6.624;2023-07-09T15:25:39;15.27;;;11.70;;
3875;SDS011;1953;51.222;6.624;2023-07-09T15:30:22;17.97;;;12.60;;
3875;SDS011;1953;51.222;6.624;2023-07-09T15:35:06;13.30;;;11.90;;
3875;SDS011;1953;51.222;6.624;2023-07-09T15:39:49;12.13;;;10.80;;
3875;SDS011;1953;51.222;6.624;2023-07-09T15:44:33;15.63;;;11.67;;
3875;SDS011;1953;51.222;6.624;2023-07-09T15:49:16;15.43;;;13.83;;
3875;SDS011;1953;51.222;6.624;2023-07-09T15:53:58;18.17;;;13.37;;
3875;SDS011;1953;51.222;6.624;2023-07-09T15:58:41;24.30;;;13.30;;
3875;SDS011;1953;51.222;6.624;2023-07-09T16:03:28;22.83;;;13.40;;
3875;SDS011;1953;51.222;6.624;2023-07-09T16:08:10;19.13;;;13.30;;
3875;SDS011;1953;51.222;6.624;2023-07-09T16:12:53;15.00;;;13.33;;
3875;SDS011;1953;51.222;6.624;2023-07-09T16:17:36;21.40;;;14.77;;
3875;SDS011;1953;51.222;6.624;2023-07-09T16:22:19;15.77;;;14.07;;
3875;SDS011;1953;51.222;6.624;2023-07-09T16:27:03;18.77;;;13.77;;
3875;SDS011;1953;51.222;6.624;2023-07-09T16:31:48;15.03;;;13.30;;
3875;SDS011;1953;51.222;6.624;2023-07-09T16:36:30;14.93;;;12.40;;
3875;SDS011;1953;51.222;6.624;2023-07-09T16:41:14;13.90;;;11.90;;
3875;SDS011;1953;51.222;6.624;2023-07-09T16:45:58;14.23;;;12.77;;
3875;SDS011;1953;51.222;6.624;2023-07-09T16:50:40;15.60;;;13.70;;
3875;SDS011;1953;51.222;6.624;2023-07-09T16:55:23;13.37;;;11.97;;
3875;SDS011;1953;51.222;6.624;2023-07-09T17:00:23;15.23;;;12.37;;
3875;SDS011;1953;51.222;6.624;2023-07-09T17:05:08;13.47;;;12.10;;
3875;SDS011;1953;51.222;6.624;2023-07-09T17:09:52;14.00;;;11.10;;
3875;SDS011;1953;51.222;6.624;2023-07-09T17:14:35;11.93;;;9.90;;
3875;SDS011;1953;51.222;6.624;2023-07-09T17:19:19;12.40;;;10.63;;
3875;SDS011;1953;51.222;6.624;2023-07-09T17:24:02;11.57;;;10.37;;
3875;SDS011;1953;51.222;6.624;2023-07-09T17:28:45;10.40;;;9.30;;
3875;SDS011;1953;51.222;6.624;2023-07-09T17:33:27;10.50;;;9.37;;
3875;SDS011;1953;51.222;6.624;2023-07-09T17:38:13;13.03;;;10.60;;
3875;SDS011;1953;51.222;6.624;2023-07-09T17:42:58;11.87;;;8.87;;
3875;SDS011;1953;51.222;6.624;2023-07-09T17:47:42;11.63;;;8.88;;
3875;SDS011;1953;51.222;6.624;2023-07-09T17:52:24;9.45;;;8.65;;
3875;SDS011;1953;51.222;6.624;2023-07-09T17:57:12;10.80;;;9.38;;
3875;SDS011;1953;51.222;6.624;2023-07-09T18:01:58;9.00;;;8.10;;
3875;SDS011;1953;51.222;6.624;2023-07-09T18:06:46;14.40;;;8.18;;
3875;SDS011;1953;51.222;6.624;2023-07-09T18:11:30;11.98;;;8.68;;
3875;SDS011;1953;51.222;6.624;2023-07-09T18:16:18;9.90;;;9.00;;
3875;SDS011;1953;51.222;6.624;2023-07-09T18:21:01;10.38;;;9.40;;
3875;SDS011;1953;51.222;6.624;2023-07-09T18:25:43;11.10;;;10.00;;
3875;SDS011;1953;51.222;6.624;2023-07-09T18:30:29;11.70;;;9.20;;
3875;SDS011;1953;51.222;6.624;2023-07-09T18:35:18;11.17;;;10.07;;
3875;SDS011;1953;51.222;6.624;2023-07-09T18:40:03;11.77;;;10.67;;
3875;SDS011;1953;51.222;6.624;2023-07-09T18:44:46;12.63;;;11.33;;
3875;SDS011;1953;51.222;6.624;2023-07-09T18:49:29;15.17;;;13.43;;
3875;SDS011;1953;51.222;6.624;2023-07-09T18:54:15;16.33;;;14.50;;
3875;SDS011;1953;51.222;6.624;2023-07-09T18:58:58;15.50;;;13.70;;
3875;SDS011;1953;51.222;6.624;2023-07-09T19:03:40;16.40;;;14.70;;
3875;SDS011;1953;51.222;6.624;2023-07-09T19:08:26;21.27;;;15.47;;
3875;SDS011;1953;51.222;6.624;2023-07-09T19:13:10;19.50;;;16.23;;
3875;SDS011;1953;51.222;6.624;2023-07-09T19:17:54;18.57;;;16.77;;
3875;SDS011;1953;51.222;6.624;2023-07-09T19:22:36;23.07;;;17.10;;
3875;SDS011;1953;51.222;6.624;2023-07-09T19:27:19;21.20;;;19.10;;
3875;SDS011;1953;51.222;6.624;2023-07-09T19:32:04;23.47;;;18.47;;
3875;SDS011;1953;51.222;6.624;2023-07-09T19:36:56;33.40;;;20.47;;
3875;SDS011;1953;51.222;6.624;2023-07-09T19:41:42;22.47;;;19.80;;
3875;SDS011;1953;51.222;6.624;2023-07-09T19:46:24;25.07;;;22.47;;
3875;SDS011;1953;51.222;6.624;2023-07-09T19:51:09;25.00;;;21.23;;
3875;SDS011;1953;51.222;6.624;2023-07-09T19:55:51;28.33;;;23.37;;
3875;SDS011;1953;51.222;6.624;2023-07-09T20:00:34;27.17;;;24.27;;
3875;SDS011;1953;51.222;6.624;2023-07-09T20:05:18;26.83;;;24.13;;
3875;SDS011;1953;51.222;6.624;2023-07-09T20:10:05;29.67;;;25.67;;
3875;SDS011;1953;51.222;6.624;2023-07-09T20:14:47;28.83;;;25.63;;
3875;SDS011;1953;51.222;6.624;2023-07-09T20:19:30;31.67;;;26.50;;
3875;SDS011;1953;51.222;6.624;2023-07-09T20:24:14;30.03;;;26.87;;
3875;SDS011;1953;51.222;6.624;2023-07-09T20:28:59;33.00;;;28.33;;
3875;SDS011;1953;51.222;6.624;2023-07-09T20:33:42;32.77;;;27.10;;
3875;SDS011;1953;51.222;6.624;2023-07-09T20:38:25;29.00;;;25.90;;
3875;SDS011;1953;51.222;6.624;2023-07-09T20:43:13;35.53;;;28.40;;
3875;SDS011;1953;51.222;6.624;2023-07-09T20:48:02;40.83;;;30.60;;
3875;SDS011;1953;51.222;6.624;2023-07-09T20:52:44;34.70;;;28.93;;
3875;SDS011;1953;51.222;6.624;2023-07-09T20:57:27;33.60;;;30.00;;
3875;SDS011;1953;51.222;6.624;2023-07-09T21:02:16;32.40;;;28.40;;
3875;SDS011;1953;51.222;6.624;2023-07-09T21:07:02;35.33;;;28.07;;
3875;SDS011;1953;51.222;6.624;2023-07-09T21:11:45;33.87;;;27.90;;
3875;SDS011;1953;51.222;6.624;2023-07-09T21:16:29;34.40;;;28.93;;
3875;SDS011;1953;51.222;6.624;2023-07-09T21:21:12;31.37;;;28.07;;
3875;SDS011;1953;51.222;6.624;2023-07-09T21:25:56;33.67;;;27.77;;
3875;SDS011;1953;51.222;6.624;2023-07-09T21:30:39;32.70;;;26.33;;
3875;SDS011;1953;51.222;6.624;2023-07-09T21:35:22;34.70;;;29.60;;
3875;SDS011;1953;51.222;6.624;2023-07-09T21:40:12;30.90;;;27.60;;
3875;SDS011;1953;51.222;6.624;2023-07-09T21:45:06;30.00;;;26.50;;
3875;SDS011;1953;51.222;6.624;2023-07-09T21:49:49;36.03;;;27.53;;
3875;SDS011;1953;51.222;6.624;2023-07-09T21:54:32;29.97;;;26.80;;
3875;SDS011;1953;51.222;6.624;2023-07-09T21:59:16;29.50;;;26.47;;
3875;SDS011;1953;51.222;6.624;2023-07-09T22:04:00;31.67;;;27.40;;
3875;SDS011;1953;51.222;6.624;2023-07-09T22:08:43;35.33;;;26.73;;
3875;SDS011;1953;51.222;6.624;2023-07-09T22:13:26;28.23;;;25.30;;
3875;SDS011;1953;51.222;6.624;2023-07-09T22:18:10;24.90;;;21.30;;
3875;SDS011;1953;51.222;6.624;2023-07-09T22:22:58;26.27;;;19.30;;
3875;SDS011;1953;51.222;6.624;2023-07-09T22:27:40;24.37;;;18.00;;
3875;SDS011;1953;51.222;6.624;2023-07-09T22:32:23;22.73;;;17.90;;
3875;SDS011;1953;51.222;6.624;2023-07-09T22:37:11;20.10;;;17.90;;
3875;SDS011;1953;51.222;6.624;2023-07-09T22:41:55;22.90;;;18.90;;
3875;SDS011;1953;51.222;6.624;2023-07-09T22:46:38;23.30;;;18.60;;
3875;SDS011;1953;51.222;6.624;2023-07-09T22:51:22;25.27;;;20.00;;
3875;SDS011;1953;51.222;6.624;2023-07-09T22:56:04;23.27;;;18.90;;
3875;SDS011;1953;51.222;6.624;2023-07-09T23:00:49;25.53;;;19.50;;
3875;SDS011;1953;51.222;6.624;2023-07-09T23:05:33;26.07;;;19.63;;
3875;SDS011;1953;51.222;6.624;2023-07-09T23:10:17;22.30;;;19.90;;
3875;SDS011;1953;51.222;6.624;2023-07-09T23:15:00;28.10;;;21.00;;
3875;SDS011;1953;51.222;6.624;2023-07-09T23:19:44;29.63;;;20.73;;
3875;SDS011;1953;51.222;6.624;2023-07-09T23:24:27;26.33;;;20.40;;
3875;SDS011;1953;51.222;6.624;2023-07-09T23:29:09;25.40;;;21.60;;
3875;SDS011;1953;51.222;6.624;2023-07-09T23:33:55;25.83;;;21.13;;
3875;SDS011;1953;51.222;6.624;2023-07-09T23:38:40;24.93;;;19.33;;
3875;SDS011;1953;51.222;6.624;2023-07-09T23:43:22;26.20;;;19.70;;
3875;SDS011;1953;51.222;6.624;2023-07-09T23:48:06;25.70;;;20.77;;
3875;SDS011;1953;51.222;6.624;2023-07-09T23:53:04;24.00;;;19.23;;
3875;SDS011;1953;51.222;6.624;2023-07-09T23:57:56;23.70;;;19.77;;
